sensor_id;sensor_type;location;lat;lon;timestamp;P1;durP1;ratioP1;P2;durP2;ratioP2
1751;SDS011;873;47.696;8.068;2024-03-25T00:00:36;3.07;;;1.27;;
1751;SDS011;873;47.696;8.068;2024-03-25T00:03:01;1.43;;;0.77;;
1751;SDS011;873;47.696;8.068;2024-03-25T00:05:27;2.67;;;1.13;;
1751;SDS011;873;47.696;8.068;2024-03-25T00:07:52;15.43;;;1.60;;
1751;SDS011;873;47.696;8.068;2024-03-25T00:10:18;2.33;;;0.87;;
1751;SDS011;873;47.696;8.068;2024-03-25T00:12:46;5.03;;;0.83;;
1751;SDS011;873;47.696;8.068;2024-03-25T00:15:12;3.30;;;1.17;;
1751;SDS011;873;47.696;8.068;2024-03-25T00:17:38;1.13;;;0.77;;
1751;SDS011;873;47.696;8.068;2024-03-25T00:20:03;3.17;;;0.83;;
1751;SDS011;873;47.696;8.068;2024-03-25T00:22:31;3.47;;;1.33;;
1751;SDS011;873;47.696;8.068;2024-03-25T00:24:56;1.73;;;1.10;;
1751;SDS011;873;47.696;8.068;2024-03-25T00:27:22;3.30;;;0.80;;
1751;SDS011;873;47.696;8.068;2024-03-25T00:29:48;2.20;;;1.20;;
1751;SDS011;873;47.696;8.068;2024-03-25T00:32:13;1.37;;;0.90;;
1751;SDS011;873;47.696;8.068;2024-03-25T00:34:40;0.93;;;0.77;;
1751;SDS011;873;47.696;8.068;2024-03-25T00:37:05;1.47;;;1.27;;
1751;SDS011;873;47.696;8.068;2024-03-25T00:39:31;0.50;;;0.50;;
1751;SDS011;873;47.696;8.068;2024-03-25T00:42:00;0.90;;;0.80;;
1751;SDS011;873;47.696;8.068;2024-03-25T00:44:25;2.13;;;0.77;;
1751;SDS011;873;47.696;8.068;2024-03-25T00:46:51;3.33;;;1.03;;
1751;SDS011;873;47.696;8.068;2024-03-25T00:49:16;3.13;;;1.47;;
1751;SDS011;873;47.696;8.068;2024-03-25T00:51:42;1.57;;;1.00;;
1751;SDS011;873;47.696;8.068;2024-03-25T00:54:08;1.80;;;1.33;;
1751;SDS011;873;47.696;8.068;2024-03-25T00:56:33;2.00;;;1.00;;
1751;SDS011;873;47.696;8.068;2024-03-25T00:58:59;5.67;;;1.00;;
1751;SDS011;873;47.696;8.068;2024-03-25T01:01:28;2.40;;;0.90;;
1751;SDS011;873;47.696;8.068;2024-03-25T01:04:01;2.23;;;1.07;;
1751;SDS011;873;47.696;8.068;2024-03-25T01:06:27;0.87;;;0.37;;
1751;SDS011;873;47.696;8.068;2024-03-25T01:08:52;3.27;;;1.50;;
1751;SDS011;873;47.696;8.068;2024-03-25T01:11:18;5.47;;;1.03;;
1751;SDS011;873;47.696;8.068;2024-03-25T01:13:43;6.07;;;1.60;;
1751;SDS011;873;47.696;8.068;2024-03-25T01:16:24;2.37;;;1.20;;
1751;SDS011;873;47.696;8.068;2024-03-25T01:18:49;1.73;;;1.30;;
1751;SDS011;873;47.696;8.068;2024-03-25T01:21:15;1.77;;;1.20;;
1751;SDS011;873;47.696;8.068;2024-03-25T01:23:40;4.10;;;1.27;;
1751;SDS011;873;47.696;8.068;2024-03-25T01:26:06;1.20;;;0.97;;
1751;SDS011;873;47.696;8.068;2024-03-25T01:28:32;3.53;;;1.60;;
1751;SDS011;873;47.696;8.068;2024-03-25T01:30:57;1.67;;;1.27;;
1751;SDS011;873;47.696;8.068;2024-03-25T01:33:23;1.57;;;1.10;;
1751;SDS011;873;47.696;8.068;2024-03-25T01:35:49;1.33;;;1.20;;
1751;SDS011;873;47.696;8.068;2024-03-25T01:38:14;1.30;;;1.10;;
1751;SDS011;873;47.696;8.068;2024-03-25T01:40:40;2.13;;;1.20;;
1751;SDS011;873;47.696;8.068;2024-03-25T01:43:05;5.03;;;1.53;;
1751;SDS011;873;47.696;8.068;2024-03-25T01:45:40;2.47;;;1.50;;
1751;SDS011;873;47.696;8.068;2024-03-25T01:48:06;4.37;;;1.37;;
1751;SDS011;873;47.696;8.068;2024-03-25T01:50:36;2.07;;;1.27;;
1751;SDS011;873;47.696;8.068;2024-03-25T01:53:03;2.83;;;1.07;;
1751;SDS011;873;47.696;8.068;2024-03-25T01:55:29;1.40;;;1.30;;
1751;SDS011;873;47.696;8.068;2024-03-25T01:57:56;1.07;;;0.77;;
1751;SDS011;873;47.696;8.068;2024-03-25T02:00:25;1.63;;;1.10;;
1751;SDS011;873;47.696;8.068;2024-03-25T02:02:53;4.00;;;1.40;;
1751;SDS011;873;47.696;8.068;2024-03-25T02:05:19;2.13;;;1.20;;
1751;SDS011;873;47.696;8.068;2024-03-25T02:07:45;2.20;;;1.10;;
1751;SDS011;873;47.696;8.068;2024-03-25T02:10:12;1.60;;;1.23;;
1751;SDS011;873;47.696;8.068;2024-03-25T02:12:44;1.57;;;0.80;;
1751;SDS011;873;47.696;8.068;2024-03-25T02:15:10;2.20;;;1.43;;
1751;SDS011;873;47.696;8.068;2024-03-25T02:17:37;2.00;;;1.27;;
1751;SDS011;873;47.696;8.068;2024-03-25T02:20:03;1.33;;;0.90;;
1751;SDS011;873;47.696;8.068;2024-03-25T02:22:30;3.00;;;1.17;;
1751;SDS011;873;47.696;8.068;2024-03-25T02:24:59;2.90;;;1.53;;
1751;SDS011;873;47.696;8.068;2024-03-25T02:27:26;1.90;;;1.13;;
1751;SDS011;873;47.696;8.068;2024-03-25T02:29:53;1.20;;;1.00;;
1751;SDS011;873;47.696;8.068;2024-03-25T02:32:19;1.70;;;1.50;;
1751;SDS011;873;47.696;8.068;2024-03-25T02:34:51;2.03;;;1.30;;
1751;SDS011;873;47.696;8.068;2024-03-25T02:37:17;2.53;;;1.57;;
1751;SDS011;873;47.696;8.068;2024-03-25T02:39:43;2.30;;;1.67;;
1751;SDS011;873;47.696;8.068;2024-03-25T02:42:09;1.80;;;1.20;;
1751;SDS011;873;47.696;8.068;2024-03-25T02:44:34;1.33;;;1.20;;
1751;SDS011;873;47.696;8.068;2024-03-25T02:47:01;2.93;;;1.00;;
1751;SDS011;873;47.696;8.068;2024-03-25T02:49:27;2.53;;;1.03;;
1751;SDS011;873;47.696;8.068;2024-03-25T02:51:53;1.67;;;1.33;;
1751;SDS011;873;47.696;8.068;2024-03-25T02:54:18;2.60;;;1.20;;
1751;SDS011;873;47.696;8.068;2024-03-25T02:56:44;3.10;;;1.53;;
1751;SDS011;873;47.696;8.068;2024-03-25T02:59:10;2.10;;;1.27;;
1751;SDS011;873;47.696;8.068;2024-03-25T03:01:35;2.33;;;1.40;;
1751;SDS011;873;47.696;8.068;2024-03-25T03:04:04;1.80;;;1.20;;
1751;SDS011;873;47.696;8.068;2024-03-25T03:06:38;1.00;;;0.90;;
1751;SDS011;873;47.696;8.068;2024-03-25T03:09:04;1.50;;;0.97;;
1751;SDS011;873;47.696;8.068;2024-03-25T03:11:30;2.13;;;1.03;;
1751;SDS011;873;47.696;8.068;2024-03-25T03:13:56;1.60;;;1.20;;
1751;SDS011;873;47.696;8.068;2024-03-25T03:16:21;1.67;;;1.27;;
1751;SDS011;873;47.696;8.068;2024-03-25T03:18:47;1.17;;;0.67;;
1751;SDS011;873;47.696;8.068;2024-03-25T03:21:12;0.73;;;0.70;;
1751;SDS011;873;47.696;8.068;2024-03-25T03:23:38;1.20;;;1.10;;
1751;SDS011;873;47.696;8.068;2024-03-25T03:26:03;0.83;;;0.80;;
1751;SDS011;873;47.696;8.068;2024-03-25T03:28:29;1.80;;;1.33;;
1751;SDS011;873;47.696;8.068;2024-03-25T03:30:54;2.60;;;1.33;;
1751;SDS011;873;47.696;8.068;2024-03-25T03:33:20;2.83;;;1.40;;
1751;SDS011;873;47.696;8.068;2024-03-25T03:35:46;1.27;;;0.90;;
1751;SDS011;873;47.696;8.068;2024-03-25T03:38:11;1.80;;;1.10;;
1751;SDS011;873;47.696;8.068;2024-03-25T03:40:37;1.83;;;0.73;;
1751;SDS011;873;47.696;8.068;2024-03-25T03:43:03;3.43;;;1.10;;
1751;SDS011;873;47.696;8.068;2024-03-25T03:45:32;1.50;;;1.10;;
1751;SDS011;873;47.696;8.068;2024-03-25T03:47:58;4.47;;;1.37;;
1751;SDS011;873;47.696;8.068;2024-03-25T03:50:24;1.23;;;0.93;;
1751;SDS011;873;47.696;8.068;2024-03-25T03:52:49;1.53;;;1.17;;
1751;SDS011;873;47.696;8.068;2024-03-25T03:55:15;1.73;;;1.30;;
1751;SDS011;873;47.696;8.068;2024-03-25T03:57:41;1.13;;;0.97;;
1751;SDS011;873;47.696;8.068;2024-03-25T04:00:08;2.83;;;1.27;;
1751;SDS011;873;47.696;8.068;2024-03-25T04:02:36;1.40;;;1.10;;
1751;SDS011;873;47.696;8.068;2024-03-25T04:05:03;1.87;;;1.53;;
1751;SDS011;873;47.696;8.068;2024-03-25T04:07:29;2.40;;;1.80;;
1751;SDS011;873;47.696;8.068;2024-03-25T04:09:57;1.30;;;0.90;;
1751;SDS011;873;47.696;8.068;2024-03-25T04:12:23;1.77;;;1.27;;
1751;SDS011;873;47.696;8.068;2024-03-25T04:14:48;6.47;;;1.40;;
1751;SDS011;873;47.696;8.068;2024-03-25T04:17:19;6.47;;;1.60;;
1751;SDS011;873;47.696;8.068;2024-03-25T04:19:46;1.93;;;1.53;;
1751;SDS011;873;47.696;8.068;2024-03-25T04:22:12;1.67;;;1.17;;
1751;SDS011;873;47.696;8.068;2024-03-25T04:24:38;2.47;;;1.20;;
1751;SDS011;873;47.696;8.068;2024-03-25T04:27:03;4.70;;;1.67;;
1751;SDS011;873;47.696;8.068;2024-03-25T04:29:29;1.50;;;1.20;;
1751;SDS011;873;47.696;8.068;2024-03-25T04:31:55;2.07;;;1.17;;
1751;SDS011;873;47.696;8.068;2024-03-25T04:34:20;3.13;;;1.50;;
1751;SDS011;873;47.696;8.068;2024-03-25T04:36:46;1.80;;;1.30;;
1751;SDS011;873;47.696;8.068;2024-03-25T04:39:11;2.60;;;1.60;;
1751;SDS011;873;47.696;8.068;2024-03-25T04:41:37;4.30;;;1.37;;
1751;SDS011;873;47.696;8.068;2024-03-25T04:44:02;1.03;;;0.80;;
1751;SDS011;873;47.696;8.068;2024-03-25T04:46:28;6.53;;;1.60;;
1751;SDS011;873;47.696;8.068;2024-03-25T04:48:54;1.43;;;1.20;;
1751;SDS011;873;47.696;8.068;2024-03-25T04:51:19;1.13;;;0.87;;
1751;SDS011;873;47.696;8.068;2024-03-25T04:53:45;2.63;;;1.60;;
1751;SDS011;873;47.696;8.068;2024-03-25T04:56:10;4.67;;;1.20;;
1751;SDS011;873;47.696;8.068;2024-03-25T04:58:36;3.40;;;1.27;;
1751;SDS011;873;47.696;8.068;2024-03-25T05:01:01;1.70;;;0.80;;
1751;SDS011;873;47.696;8.068;2024-03-25T05:03:27;1.77;;;1.20;;
1751;SDS011;873;47.696;8.068;2024-03-25T05:05:53;3.30;;;1.47;;
1751;SDS011;873;47.696;8.068;2024-03-25T05:08:18;2.97;;;1.10;;
1751;SDS011;873;47.696;8.068;2024-03-25T05:10:44;1.17;;;0.80;;
1751;SDS011;873;47.696;8.068;2024-03-25T05:13:10;1.97;;;1.20;;
1751;SDS011;873;47.696;8.068;2024-03-25T05:15:36;2.90;;;1.20;;
1751;SDS011;873;47.696;8.068;2024-03-25T05:18:01;1.77;;;0.90;;
1751;SDS011;873;47.696;8.068;2024-03-25T05:20:27;3.57;;;1.07;;
1751;SDS011;873;47.696;8.068;2024-03-25T05:22:52;1.50;;;0.93;;
1751;SDS011;873;47.696;8.068;2024-03-25T05:25:18;3.53;;;1.07;;
1751;SDS011;873;47.696;8.068;2024-03-25T05:27:43;1.10;;;1.00;;
1751;SDS011;873;47.696;8.068;2024-03-25T05:30:09;2.73;;;1.47;;
1751;SDS011;873;47.696;8.068;2024-03-25T05:32:37;3.60;;;1.20;;
1751;SDS011;873;47.696;8.068;2024-03-25T05:35:02;3.10;;;1.33;;
1751;SDS011;873;47.696;8.068;2024-03-25T05:37:28;4.10;;;1.13;;
1751;SDS011;873;47.696;8.068;2024-03-25T05:39:57;2.27;;;1.30;;
1751;SDS011;873;47.696;8.068;2024-03-25T05:42:23;1.70;;;1.13;;
1751;SDS011;873;47.696;8.068;2024-03-25T05:44:49;3.90;;;1.53;;
1751;SDS011;873;47.696;8.068;2024-03-25T05:47:14;1.10;;;1.00;;
1751;SDS011;873;47.696;8.068;2024-03-25T05:49:40;3.93;;;1.47;;
1751;SDS011;873;47.696;8.068;2024-03-25T05:52:05;2.43;;;1.47;;
1751;SDS011;873;47.696;8.068;2024-03-25T05:54:31;1.93;;;1.33;;
1751;SDS011;873;47.696;8.068;2024-03-25T05:56:57;2.20;;;1.23;;
1751;SDS011;873;47.696;8.068;2024-03-25T05:59:23;1.17;;;0.77;;
1751;SDS011;873;47.696;8.068;2024-03-25T06:01:48;2.70;;;1.27;;
1751;SDS011;873;47.696;8.068;2024-03-25T06:04:14;1.60;;;1.10;;
1751;SDS011;873;47.696;8.068;2024-03-25T06:06:39;3.97;;;1.20;;
1751;SDS011;873;47.696;8.068;2024-03-25T06:09:05;5.23;;;1.60;;
1751;SDS011;873;47.696;8.068;2024-03-25T06:11:30;1.83;;;1.00;;
1751;SDS011;873;47.696;8.068;2024-03-25T06:13:56;5.50;;;1.30;;
1751;SDS011;873;47.696;8.068;2024-03-25T06:16:22;5.53;;;1.50;;
1751;SDS011;873;47.696;8.068;2024-03-25T06:18:47;1.03;;;0.90;;
1751;SDS011;873;47.696;8.068;2024-03-25T06:21:13;2.50;;;1.00;;
1751;SDS011;873;47.696;8.068;2024-03-25T06:23:40;2.90;;;1.80;;
1751;SDS011;873;47.696;8.068;2024-03-25T06:26:05;1.47;;;1.03;;
1751;SDS011;873;47.696;8.068;2024-03-25T06:28:31;5.23;;;1.30;;
1751;SDS011;873;47.696;8.068;2024-03-25T06:30:56;2.87;;;1.07;;
1751;SDS011;873;47.696;8.068;2024-03-25T06:33:40;9.30;;;1.17;;
1751;SDS011;873;47.696;8.068;2024-03-25T06:36:24;1.50;;;1.13;;
1751;SDS011;873;47.696;8.068;2024-03-25T06:38:50;0.93;;;0.80;;
1751;SDS011;873;47.696;8.068;2024-03-25T06:41:15;2.83;;;1.60;;
1751;SDS011;873;47.696;8.068;2024-03-25T06:43:41;1.27;;;1.17;;
1751;SDS011;873;47.696;8.068;2024-03-25T06:46:07;1.40;;;0.97;;
1751;SDS011;873;47.696;8.068;2024-03-25T06:48:33;2.00;;;1.43;;
1751;SDS011;873;47.696;8.068;2024-03-25T06:50:59;5.53;;;1.20;;
1751;SDS011;873;47.696;8.068;2024-03-25T06:53:25;6.50;;;1.63;;
1751;SDS011;873;47.696;8.068;2024-03-25T06:55:55;1.53;;;1.10;;
1751;SDS011;873;47.696;8.068;2024-03-25T06:58:22;1.57;;;1.00;;
1751;SDS011;873;47.696;8.068;2024-03-25T07:00:49;3.27;;;1.30;;
1751;SDS011;873;47.696;8.068;2024-03-25T07:03:19;1.80;;;0.97;;
1751;SDS011;873;47.696;8.068;2024-03-25T07:05:48;2.07;;;0.90;;
1751;SDS011;873;47.696;8.068;2024-03-25T07:08:14;4.70;;;1.43;;
1751;SDS011;873;47.696;8.068;2024-03-25T07:10:44;2.50;;;1.30;;
1751;SDS011;873;47.696;8.068;2024-03-25T07:13:10;2.10;;;0.80;;
1751;SDS011;873;47.696;8.068;2024-03-25T07:15:36;1.33;;;1.00;;
1751;SDS011;873;47.696;8.068;2024-03-25T07:18:02;1.40;;;1.10;;
1751;SDS011;873;47.696;8.068;2024-03-25T07:20:28;1.47;;;0.83;;
1751;SDS011;873;47.696;8.068;2024-03-25T07:22:54;2.40;;;1.17;;
1751;SDS011;873;47.696;8.068;2024-03-25T07:25:24;4.00;;;1.07;;
1751;SDS011;873;47.696;8.068;2024-03-25T07:27:50;0.67;;;0.60;;
1751;SDS011;873;47.696;8.068;2024-03-25T07:30:16;5.10;;;1.00;;
1751;SDS011;873;47.696;8.068;2024-03-25T07:32:41;4.30;;;1.23;;
1751;SDS011;873;47.696;8.068;2024-03-25T07:35:07;1.87;;;1.17;;
1751;SDS011;873;47.696;8.068;2024-03-25T07:37:35;2.63;;;0.90;;
1751;SDS011;873;47.696;8.068;2024-03-25T07:40:00;1.63;;;1.00;;
1751;SDS011;873;47.696;8.068;2024-03-25T07:42:26;5.87;;;1.50;;
1751;SDS011;873;47.696;8.068;2024-03-25T07:44:51;3.47;;;1.23;;
1751;SDS011;873;47.696;8.068;2024-03-25T07:47:18;1.50;;;0.90;;
1751;SDS011;873;47.696;8.068;2024-03-25T07:49:43;2.10;;;1.60;;
1751;SDS011;873;47.696;8.068;2024-03-25T07:52:09;2.53;;;1.17;;
1751;SDS011;873;47.696;8.068;2024-03-25T07:54:34;0.70;;;0.60;;
1751;SDS011;873;47.696;8.068;2024-03-25T07:57:02;1.70;;;1.37;;
1751;SDS011;873;47.696;8.068;2024-03-25T07:59:29;1.53;;;1.33;;
1751;SDS011;873;47.696;8.068;2024-03-25T08:01:54;3.90;;;1.20;;
1751;SDS011;873;47.696;8.068;2024-03-25T08:04:20;2.47;;;1.33;;
1751;SDS011;873;47.696;8.068;2024-03-25T08:06:46;1.53;;;0.90;;
1751;SDS011;873;47.696;8.068;2024-03-25T08:09:11;2.40;;;1.30;;
1751;SDS011;873;47.696;8.068;2024-03-25T08:11:39;2.50;;;1.33;;
1751;SDS011;873;47.696;8.068;2024-03-25T08:14:04;2.47;;;1.47;;
1751;SDS011;873;47.696;8.068;2024-03-25T08:16:30;2.10;;;1.40;;
1751;SDS011;873;47.696;8.068;2024-03-25T08:18:55;1.83;;;1.13;;
1751;SDS011;873;47.696;8.068;2024-03-25T08:21:21;2.40;;;1.23;;
1751;SDS011;873;47.696;8.068;2024-03-25T08:23:48;3.47;;;1.27;;
1751;SDS011;873;47.696;8.068;2024-03-25T08:26:13;2.20;;;1.00;;
1751;SDS011;873;47.696;8.068;2024-03-25T08:28:39;1.87;;;1.30;;
1751;SDS011;873;47.696;8.068;2024-03-25T08:31:04;2.27;;;1.20;;
1751;SDS011;873;47.696;8.068;2024-03-25T08:33:30;2.43;;;1.20;;
1751;SDS011;873;47.696;8.068;2024-03-25T08:35:56;1.70;;;1.00;;
1751;SDS011;873;47.696;8.068;2024-03-25T08:38:22;1.13;;;0.77;;
1751;SDS011;873;47.696;8.068;2024-03-25T08:40:47;3.50;;;1.20;;
1751;SDS011;873;47.696;8.068;2024-03-25T08:43:13;1.03;;;0.93;;
1751;SDS011;873;47.696;8.068;2024-03-25T08:45:39;1.30;;;1.00;;
1751;SDS011;873;47.696;8.068;2024-03-25T08:48:06;1.77;;;0.90;;
1751;SDS011;873;47.696;8.068;2024-03-25T08:50:32;1.17;;;0.80;;
1751;SDS011;873;47.696;8.068;2024-03-25T08:52:57;2.13;;;1.27;;
1751;SDS011;873;47.696;8.068;2024-03-25T08:55:23;1.83;;;1.00;;
1751;SDS011;873;47.696;8.068;2024-03-25T08:57:49;1.17;;;1.07;;
1751;SDS011;873;47.696;8.068;2024-03-25T09:00:14;1.50;;;1.03;;
1751;SDS011;873;47.696;8.068;2024-03-25T09:02:40;1.07;;;0.80;;
1751;SDS011;873;47.696;8.068;2024-03-25T09:05:06;1.77;;;0.83;;
1751;SDS011;873;47.696;8.068;2024-03-25T09:07:36;2.03;;;0.80;;
1751;SDS011;873;47.696;8.068;2024-03-25T09:10:02;1.27;;;1.03;;
1751;SDS011;873;47.696;8.068;2024-03-25T09:12:46;2.17;;;1.00;;
1751;SDS011;873;47.696;8.068;2024-03-25T09:15:12;2.97;;;1.20;;
1751;SDS011;873;47.696;8.068;2024-03-25T09:17:39;2.30;;;1.23;;
1751;SDS011;873;47.696;8.068;2024-03-25T09:20:05;1.23;;;1.07;;
1751;SDS011;873;47.696;8.068;2024-03-25T09:22:45;1.60;;;0.90;;
1751;SDS011;873;47.696;8.068;2024-03-25T09:25:13;1.43;;;0.93;;
1751;SDS011;873;47.696;8.068;2024-03-25T09:27:41;1.97;;;1.17;;
1751;SDS011;873;47.696;8.068;2024-03-25T09:30:10;0.80;;;0.80;;
1751;SDS011;873;47.696;8.068;2024-03-25T09:32:36;2.10;;;1.00;;
1751;SDS011;873;47.696;8.068;2024-03-25T09:35:02;1.97;;;1.30;;
1751;SDS011;873;47.696;8.068;2024-03-25T09:37:28;1.43;;;1.03;;
1751;SDS011;873;47.696;8.068;2024-03-25T09:39:54;1.83;;;1.23;;
1751;SDS011;873;47.696;8.068;2024-03-25T09:42:25;2.00;;;1.10;;
1751;SDS011;873;47.696;8.068;2024-03-25T09:44:53;1.80;;;1.07;;
1751;SDS011;873;47.696;8.068;2024-03-25T09:47:19;1.67;;;1.10;;
1751;SDS011;873;47.696;8.068;2024-03-25T09:49:45;1.50;;;1.20;;
1751;SDS011;873;47.696;8.068;2024-03-25T09:52:11;2.63;;;1.60;;
1751;SDS011;873;47.696;8.068;2024-03-25T09:54:36;1.00;;;0.60;;
1751;SDS011;873;47.696;8.068;2024-03-25T09:57:02;1.30;;;0.90;;
1751;SDS011;873;47.696;8.068;2024-03-25T09:59:29;1.73;;;1.10;;
1751;SDS011;873;47.696;8.068;2024-03-25T10:01:55;1.40;;;1.00;;
1751;SDS011;873;47.696;8.068;2024-03-25T10:04:21;1.50;;;1.00;;
1751;SDS011;873;47.696;8.068;2024-03-25T10:06:46;3.90;;;1.50;;
1751;SDS011;873;47.696;8.068;2024-03-25T10:09:13;1.73;;;0.90;;
1751;SDS011;873;47.696;8.068;2024-03-25T10:11:39;1.63;;;0.70;;
1751;SDS011;873;47.696;8.068;2024-03-25T10:14:04;2.50;;;0.93;;
1751;SDS011;873;47.696;8.068;2024-03-25T10:16:30;1.73;;;0.90;;
1751;SDS011;873;47.696;8.068;2024-03-25T10:18:55;2.87;;;0.80;;
1751;SDS011;873;47.696;8.068;2024-03-25T10:21:21;1.87;;;0.80;;
1751;SDS011;873;47.696;8.068;2024-03-25T10:23:47;1.87;;;1.10;;
1751;SDS011;873;47.696;8.068;2024-03-25T10:26:30;1.00;;;0.80;;
1751;SDS011;873;47.696;8.068;2024-03-25T10:29:00;2.83;;;0.90;;
1751;SDS011;873;47.696;8.068;2024-03-25T10:31:32;0.70;;;0.70;;
1751;SDS011;873;47.696;8.068;2024-03-25T10:33:59;1.03;;;0.90;;
1751;SDS011;873;47.696;8.068;2024-03-25T10:36:26;2.90;;;0.73;;
1751;SDS011;873;47.696;8.068;2024-03-25T10:38:55;1.37;;;0.70;;
1751;SDS011;873;47.696;8.068;2024-03-25T10:41:22;1.03;;;0.63;;
1751;SDS011;873;47.696;8.068;2024-03-25T10:43:50;1.30;;;0.53;;
1751;SDS011;873;47.696;8.068;2024-03-25T10:46:18;3.00;;;0.93;;
1751;SDS011;873;47.696;8.068;2024-03-25T10:48:52;0.87;;;0.83;;
1751;SDS011;873;47.696;8.068;2024-03-25T10:51:20;1.10;;;0.80;;
1751;SDS011;873;47.696;8.068;2024-03-25T10:53:47;0.80;;;0.80;;
1751;SDS011;873;47.696;8.068;2024-03-25T10:56:15;1.17;;;0.73;;
1751;SDS011;873;47.696;8.068;2024-03-25T10:58:41;0.63;;;0.50;;
1751;SDS011;873;47.696;8.068;2024-03-25T11:01:07;1.07;;;0.50;;
1751;SDS011;873;47.696;8.068;2024-03-25T11:03:33;0.90;;;0.50;;
1751;SDS011;873;47.696;8.068;2024-03-25T11:05:59;0.63;;;0.60;;
1751;SDS011;873;47.696;8.068;2024-03-25T11:08:30;3.80;;;0.70;;
1751;SDS011;873;47.696;8.068;2024-03-25T11:10:56;2.13;;;0.60;;
1751;SDS011;873;47.696;8.068;2024-03-25T11:13:22;1.73;;;1.00;;
1751;SDS011;873;47.696;8.068;2024-03-25T11:15:48;0.50;;;0.50;;
1751;SDS011;873;47.696;8.068;2024-03-25T11:18:17;1.07;;;0.90;;
1751;SDS011;873;47.696;8.068;2024-03-25T11:20:44;1.17;;;0.60;;
1751;SDS011;873;47.696;8.068;2024-03-25T11:23:11;1.43;;;0.60;;
1751;SDS011;873;47.696;8.068;2024-03-25T11:25:40;1.43;;;0.70;;
1751;SDS011;873;47.696;8.068;2024-03-25T11:28:07;0.30;;;0.30;;
1751;SDS011;873;47.696;8.068;2024-03-25T11:30:33;0.40;;;0.40;;
1751;SDS011;873;47.696;8.068;2024-03-25T11:33:01;0.73;;;0.40;;
1751;SDS011;873;47.696;8.068;2024-03-25T11:35:27;0.70;;;0.53;;
1751;SDS011;873;47.696;8.068;2024-03-25T11:37:53;1.83;;;0.40;;
1751;SDS011;873;47.696;8.068;2024-03-25T11:40:19;1.17;;;0.40;;
1751;SDS011;873;47.696;8.068;2024-03-25T11:42:45;1.33;;;0.47;;
1751;SDS011;873;47.696;8.068;2024-03-25T11:45:18;1.63;;;0.60;;
1751;SDS011;873;47.696;8.068;2024-03-25T11:47:45;4.07;;;0.50;;
1751;SDS011;873;47.696;8.068;2024-03-25T11:50:12;0.33;;;0.20;;
1751;SDS011;873;47.696;8.068;2024-03-25T11:52:39;1.27;;;0.50;;
1751;SDS011;873;47.696;8.068;2024-03-25T11:55:05;0.60;;;0.47;;
1751;SDS011;873;47.696;8.068;2024-03-25T11:57:31;0.63;;;0.47;;
1751;SDS011;873;47.696;8.068;2024-03-25T11:59:59;0.67;;;0.50;;
1751;SDS011;873;47.696;8.068;2024-03-25T12:02:25;1.13;;;0.73;;
1751;SDS011;873;47.696;8.068;2024-03-25T12:04:51;1.37;;;0.50;;
1751;SDS011;873;47.696;8.068;2024-03-25T12:07:16;1.10;;;0.60;;
1751;SDS011;873;47.696;8.068;2024-03-25T12:09:44;0.77;;;0.60;;
1751;SDS011;873;47.696;8.068;2024-03-25T12:12:28;2.23;;;0.73;;
1751;SDS011;873;47.696;8.068;2024-03-25T12:14:55;1.17;;;0.50;;
1751;SDS011;873;47.696;8.068;2024-03-25T12:17:21;0.70;;;0.50;;
1751;SDS011;873;47.696;8.068;2024-03-25T12:20:03;0.60;;;0.50;;
1751;SDS011;873;47.696;8.068;2024-03-25T12:22:30;0.77;;;0.33;;
1751;SDS011;873;47.696;8.068;2024-03-25T12:24:58;0.57;;;0.30;;
1751;SDS011;873;47.696;8.068;2024-03-25T12:27:24;1.80;;;0.47;;
1751;SDS011;873;47.696;8.068;2024-03-25T12:35:01;0.53;;;0.30;;
1751;SDS011;873;47.696;8.068;2024-03-25T12:37:26;0.37;;;0.27;;
1751;SDS011;873;47.696;8.068;2024-03-25T12:39:52;0.83;;;0.50;;
1751;SDS011;873;47.696;8.068;2024-03-25T12:42:18;1.10;;;0.70;;
1751;SDS011;873;47.696;8.068;2024-03-25T12:44:44;0.70;;;0.47;;
1751;SDS011;873;47.696;8.068;2024-03-25T12:47:09;0.93;;;0.60;;
1751;SDS011;873;47.696;8.068;2024-03-25T12:49:35;0.80;;;0.47;;
1751;SDS011;873;47.696;8.068;2024-03-25T12:52:01;1.23;;;0.60;;
1751;SDS011;873;47.696;8.068;2024-03-25T12:54:30;0.70;;;0.70;;
1751;SDS011;873;47.696;8.068;2024-03-25T12:56:56;1.83;;;0.40;;
1751;SDS011;873;47.696;8.068;2024-03-25T12:59:22;0.43;;;0.40;;
1751;SDS011;873;47.696;8.068;2024-03-25T13:01:48;0.50;;;0.40;;
1751;SDS011;873;47.696;8.068;2024-03-25T13:04:13;0.80;;;0.57;;
1751;SDS011;873;47.696;8.068;2024-03-25T13:06:39;1.47;;;0.90;;
1751;SDS011;873;47.696;8.068;2024-03-25T13:09:04;2.00;;;0.60;;
1751;SDS011;873;47.696;8.068;2024-03-25T13:11:30;0.93;;;0.50;;
1751;SDS011;873;47.696;8.068;2024-03-25T13:13:56;0.63;;;0.60;;
1751;SDS011;873;47.696;8.068;2024-03-25T13:16:21;1.13;;;0.50;;
1751;SDS011;873;47.696;8.068;2024-03-25T13:18:47;0.30;;;0.30;;
1751;SDS011;873;47.696;8.068;2024-03-25T13:21:12;1.80;;;0.30;;
1751;SDS011;873;47.696;8.068;2024-03-25T13:23:38;0.60;;;0.40;;
1751;SDS011;873;47.696;8.068;2024-03-25T13:26:03;1.63;;;0.50;;
1751;SDS011;873;47.696;8.068;2024-03-25T13:28:29;0.77;;;0.40;;
1751;SDS011;873;47.696;8.068;2024-03-25T13:30:55;1.43;;;0.60;;
1751;SDS011;873;47.696;8.068;2024-03-25T13:33:20;2.30;;;0.60;;
1751;SDS011;873;47.696;8.068;2024-03-25T13:35:46;0.63;;;0.60;;
1751;SDS011;873;47.696;8.068;2024-03-25T13:38:12;1.73;;;0.80;;
1751;SDS011;873;47.696;8.068;2024-03-25T13:40:38;2.07;;;0.90;;
1751;SDS011;873;47.696;8.068;2024-03-25T13:43:05;0.63;;;0.63;;
1751;SDS011;873;47.696;8.068;2024-03-25T13:45:33;0.70;;;0.60;;
1751;SDS011;873;47.696;8.068;2024-03-25T13:47:59;1.57;;;0.57;;
1751;SDS011;873;47.696;8.068;2024-03-25T13:50:24;1.20;;;0.70;;
1751;SDS011;873;47.696;8.068;2024-03-25T13:52:50;0.70;;;0.60;;
1751;SDS011;873;47.696;8.068;2024-03-25T13:55:15;0.90;;;0.60;;
1751;SDS011;873;47.696;8.068;2024-03-25T13:57:41;0.60;;;0.60;;
1751;SDS011;873;47.696;8.068;2024-03-25T14:00:07;1.00;;;0.40;;
1751;SDS011;873;47.696;8.068;2024-03-25T14:02:35;0.60;;;0.33;;
1751;SDS011;873;47.696;8.068;2024-03-25T14:05:04;0.70;;;0.50;;
1751;SDS011;873;47.696;8.068;2024-03-25T14:07:30;2.20;;;0.67;;
1751;SDS011;873;47.696;8.068;2024-03-25T14:09:55;0.50;;;0.43;;
1751;SDS011;873;47.696;8.068;2024-03-25T14:12:21;0.63;;;0.63;;
1751;SDS011;873;47.696;8.068;2024-03-25T14:20:58;0.40;;;0.33;;
1751;SDS011;873;47.696;8.068;2024-03-25T14:23:24;0.73;;;0.53;;
1751;SDS011;873;47.696;8.068;2024-03-25T14:25:49;1.10;;;0.60;;
1751;SDS011;873;47.696;8.068;2024-03-25T14:28:15;0.73;;;0.43;;
1751;SDS011;873;47.696;8.068;2024-03-25T14:30:40;0.53;;;0.30;;
1751;SDS011;873;47.696;8.068;2024-03-25T14:33:06;2.23;;;0.53;;
1751;SDS011;873;47.696;8.068;2024-03-25T14:35:32;0.50;;;0.50;;
1751;SDS011;873;47.696;8.068;2024-03-25T14:37:57;0.47;;;0.37;;
1751;SDS011;873;47.696;8.068;2024-03-25T14:40:23;0.30;;;0.30;;
1751;SDS011;873;47.696;8.068;2024-03-25T14:42:48;1.17;;;0.43;;
1751;SDS011;873;47.696;8.068;2024-03-25T14:45:14;0.40;;;0.40;;
1751;SDS011;873;47.696;8.068;2024-03-25T14:47:40;0.60;;;0.30;;
1751;SDS011;873;47.696;8.068;2024-03-25T14:50:05;1.00;;;0.50;;
1751;SDS011;873;47.696;8.068;2024-03-25T14:52:31;0.90;;;0.20;;
1751;SDS011;873;47.696;8.068;2024-03-25T14:54:56;0.47;;;0.23;;
1751;SDS011;873;47.696;8.068;2024-03-25T14:57:22;1.07;;;0.40;;
1751;SDS011;873;47.696;8.068;2024-03-25T14:59:47;1.60;;;0.47;;
1751;SDS011;873;47.696;8.068;2024-03-25T15:02:13;0.30;;;0.30;;
1751;SDS011;873;47.696;8.068;2024-03-25T15:04:39;2.70;;;0.30;;
1751;SDS011;873;47.696;8.068;2024-03-25T15:07:12;0.80;;;0.40;;
1751;SDS011;873;47.696;8.068;2024-03-25T15:09:38;0.87;;;0.30;;
1751;SDS011;873;47.696;8.068;2024-03-25T15:12:04;0.30;;;0.30;;
1751;SDS011;873;47.696;8.068;2024-03-25T15:14:30;1.20;;;0.40;;
1751;SDS011;873;47.696;8.068;2024-03-25T15:16:56;0.40;;;0.30;;
1751;SDS011;873;47.696;8.068;2024-03-25T15:19:23;0.37;;;0.37;;
1751;SDS011;873;47.696;8.068;2024-03-25T15:21:49;0.70;;;0.17;;
1751;SDS011;873;47.696;8.068;2024-03-25T15:24:15;0.37;;;0.17;;
1751;SDS011;873;47.696;8.068;2024-03-25T15:26:40;0.40;;;0.20;;
1751;SDS011;873;47.696;8.068;2024-03-25T15:29:06;1.00;;;0.30;;
1751;SDS011;873;47.696;8.068;2024-03-25T15:31:31;0.47;;;0.33;;
1751;SDS011;873;47.696;8.068;2024-03-25T15:33:57;0.50;;;0.40;;
1751;SDS011;873;47.696;8.068;2024-03-25T15:36:23;1.27;;;0.53;;